Peabiru, Brazil
Current Conditions -  °F | °C
As of 12:00 PM on Wednesday 28 Jan 2015 (Local Time) from SBMG Reporting Station
Broken Clouds Broken Clouds  
Wind Chill: 75°   Ceiling: 700
Heat Index: 75°   Visibility: 6mi
Dew Point: 72°   Wind: 14mph
Humidity: 89%   Direction: 350°N
Pressure: 29.97"   Gusts: NA
Location:  23.92°S, 52.34°W
Report Text: SBMG 281400Z 35012KT 9999 BKN007 BKN018 24/22 Q1015
Loading
Personal Weather Stations






























Interactive Weather Map New forecast layout! Learn more

10-Day Weather Forecast

Advertisements
Track Severe Weather on mobile